sensor_id;sensor_type;location;lat;lon;timestamp;temperature;humidity
37050;DHT22;22958;51.232;6.826;2023-02-26T00:00:59;1.00;99.90
37050;DHT22;22958;51.232;6.826;2023-02-26T00:03:24;1.00;99.90
37050;DHT22;22958;51.232;6.826;2023-02-26T00:05:50;1.10;99.90
37050;DHT22;22958;51.232;6.826;2023-02-26T00:08:15;1.10;99.90
37050;DHT22;22958;51.232;6.826;2023-02-26T00:10:41;1.10;99.90
37050;DHT22;22958;51.232;6.826;2023-02-26T00:13:09;1.10;99.90
37050;DHT22;22958;51.232;6.826;2023-02-26T00:15:35;1.00;99.90
37050;DHT22;22958;51.232;6.826;2023-02-26T00:18:05;1.00;99.90
37050;DHT22;22958;51.232;6.826;2023-02-26T00:20:31;1.00;99.90
37050;DHT22;22958;51.232;6.826;2023-02-26T00:22:57;1.00;99.90
37050;DHT22;22958;51.232;6.826;2023-02-26T00:25:23;1.00;99.90
37050;DHT22;22958;51.232;6.826;2023-02-26T00:27:49;1.00;99.90
37050;DHT22;22958;51.232;6.826;2023-02-26T00:30:14;1.00;99.90
37050;DHT22;22958;51.232;6.826;2023-02-26T00:32:40;1.00;99.90
37050;DHT22;22958;51.232;6.826;2023-02-26T00:35:08;1.00;99.90
37050;DHT22;22958;51.232;6.826;2023-02-26T00:37:48;1.00;99.90
37050;DHT22;22958;51.232;6.826;2023-02-26T00:40:21;1.00;99.90
37050;DHT22;22958;51.232;6.826;2023-02-26T00:42:51;1.10;99.90
37050;DHT22;22958;51.232;6.826;2023-02-26T00:45:17;1.00;99.90
37050;DHT22;22958;51.232;6.826;2023-02-26T00:53:11;1.10;99.90
37050;DHT22;22958;51.232;6.826;2023-02-26T00:55:38;1.10;99.90
37050;DHT22;22958;51.232;6.826;2023-02-26T00:58:04;1.00;99.90
37050;DHT22;22958;51.232;6.826;2023-02-26T01:00:29;1.00;99.90
37050;DHT22;22958;51.232;6.826;2023-02-26T01:02:56;1.00;99.90
37050;DHT22;22958;51.232;6.826;2023-02-26T01:05:22;1.00;99.90
37050;DHT22;22958;51.232;6.826;2023-02-26T01:10:38;1.00;99.90
37050;DHT22;22958;51.232;6.826;2023-02-26T01:13:04;1.00;99.90
37050;DHT22;22958;51.232;6.826;2023-02-26T01:15:29;1.00;99.90
37050;DHT22;22958;51.232;6.826;2023-02-26T01:20:31;1.00;99.90
37050;DHT22;22958;51.232;6.826;2023-02-26T01:23:03;1.10;99.90
37050;DHT22;22958;51.232;6.826;2023-02-26T01:25:49;1.00;99.90
37050;DHT22;22958;51.232;6.826;2023-02-26T01:28:16;1.10;99.90
37050;DHT22;22958;51.232;6.826;2023-02-26T01:30:42;1.10;99.90
37050;DHT22;22958;51.232;6.826;2023-02-26T01:33:21;1.10;99.90
37050;DHT22;22958;51.232;6.826;2023-02-26T01:35:52;1.10;99.90
37050;DHT22;22958;51.232;6.826;2023-02-26T01:41:02;1.10;99.90
37050;DHT22;22958;51.232;6.826;2023-02-26T01:47:05;1.10;99.90
37050;DHT22;22958;51.232;6.826;2023-02-26T01:48:59;1.10;99.90
37050;DHT22;22958;51.232;6.826;2023-02-26T01:51:46;1.10;99.90
37050;DHT22;22958;51.232;6.826;2023-02-26T01:54:13;1.10;99.90
37050;DHT22;22958;51.232;6.826;2023-02-26T01:56:39;1.10;99.90
37050;DHT22;22958;51.232;6.826;2023-02-26T01:59:09;1.10;99.90
37050;DHT22;22958;51.232;6.826;2023-02-26T02:01:36;1.10;99.90
37050;DHT22;22958;51.232;6.826;2023-02-26T02:04:03;1.10;99.90
37050;DHT22;22958;51.232;6.826;2023-02-26T02:06:30;1.10;99.90
37050;DHT22;22958;51.232;6.826;2023-02-26T02:08:56;1.00;99.90
37050;DHT22;22958;51.232;6.826;2023-02-26T02:11:21;1.00;99.90
37050;DHT22;22958;51.232;6.826;2023-02-26T02:14:11;1.00;99.90
37050;DHT22;22958;51.232;6.826;2023-02-26T02:17:04;0.90;99.90
37050;DHT22;22958;51.232;6.826;2023-02-26T02:19:42;0.80;99.90
37050;DHT22;22958;51.232;6.826;2023-02-26T02:22:18;0.80;99.90
37050;DHT22;22958;51.232;6.826;2023-02-26T02:28:35;0.60;99.90
37050;DHT22;22958;51.232;6.826;2023-02-26T02:31:14;0.60;99.90
37050;DHT22;22958;51.232;6.826;2023-02-26T02:34:02;0.60;99.90
37050;DHT22;22958;51.232;6.826;2023-02-26T02:36:51;0.60;99.90
37050;DHT22;22958;51.232;6.826;2023-02-26T02:39:24;0.60;99.90
37050;DHT22;22958;51.232;6.826;2023-02-26T02:41:55;0.50;99.90
37050;DHT22;22958;51.232;6.826;2023-02-26T02:44:24;0.60;99.90
37050;DHT22;22958;51.232;6.826;2023-02-26T02:46:53;0.60;99.90
37050;DHT22;22958;51.232;6.826;2023-02-26T02:49:24;0.50;99.90
37050;DHT22;22958;51.232;6.826;2023-02-26T02:51:59;0.40;99.90
37050;DHT22;22958;51.232;6.826;2023-02-26T02:54:35;0.40;99.90
37050;DHT22;22958;51.232;6.826;2023-02-26T02:57:14;0.30;99.90
37050;DHT22;22958;51.232;6.826;2023-02-26T02:59:43;0.30;99.90
37050;DHT22;22958;51.232;6.826;2023-02-26T03:02:22;0.40;99.90
37050;DHT22;22958;51.232;6.826;2023-02-26T03:04:51;0.40;99.90
37050;DHT22;22958;51.232;6.826;2023-02-26T03:07:16;0.30;99.90
37050;DHT22;22958;51.232;6.826;2023-02-26T03:09:42;0.30;99.90
37050;DHT22;22958;51.232;6.826;2023-02-26T03:12:08;0.30;99.90
37050;DHT22;22958;51.232;6.826;2023-02-26T03:14:34;0.30;99.90
37050;DHT22;22958;51.232;6.826;2023-02-26T03:17:26;0.30;99.90
37050;DHT22;22958;51.232;6.826;2023-02-26T03:25:17;0.10;99.90
37050;DHT22;22958;51.232;6.826;2023-02-26T03:28:09;0.10;99.90
37050;DHT22;22958;51.232;6.826;2023-02-26T03:30:47;0.10;99.90
37050;DHT22;22958;51.232;6.826;2023-02-26T03:33:21;0.10;99.90
37050;DHT22;22958;51.232;6.826;2023-02-26T03:36:08;0.00;99.90
37050;DHT22;22958;51.232;6.826;2023-02-26T03:38:41;-0.10;99.90
37050;DHT22;22958;51.232;6.826;2023-02-26T03:41:10;-0.20;99.90
37050;DHT22;22958;51.232;6.826;2023-02-26T03:43:50;-0.10;99.90
37050;DHT22;22958;51.232;6.826;2023-02-26T03:46:26;-0.10;99.90
37050;DHT22;22958;51.232;6.826;2023-02-26T03:48:55;0.00;99.90
37050;DHT22;22958;51.232;6.826;2023-02-26T03:51:23;0.10;99.90
37050;DHT22;22958;51.232;6.826;2023-02-26T03:53:56;0.20;99.90
37050;DHT22;22958;51.232;6.826;2023-02-26T03:58:55;0.00;99.90
37050;DHT22;22958;51.232;6.826;2023-02-26T04:01:25;0.00;99.90
37050;DHT22;22958;51.232;6.826;2023-02-26T04:04:08;0.00;99.90
37050;DHT22;22958;51.232;6.826;2023-02-26T04:06:35;0.00;99.90
37050;DHT22;22958;51.232;6.826;2023-02-26T04:09:02;0.00;99.90
37050;DHT22;22958;51.232;6.826;2023-02-26T04:11:28;0.00;99.90
37050;DHT22;22958;51.232;6.826;2023-02-26T04:13:54;0.00;99.90
37050;DHT22;22958;51.232;6.826;2023-02-26T04:16:19;0.00;99.90
37050;DHT22;22958;51.232;6.826;2023-02-26T04:18:45;0.00;99.90
37050;DHT22;22958;51.232;6.826;2023-02-26T04:21:12;0.00;99.90
37050;DHT22;22958;51.232;6.826;2023-02-26T04:23:38;0.00;99.90
37050;DHT22;22958;51.232;6.826;2023-02-26T04:26:04;0.00;99.90
37050;DHT22;22958;51.232;6.826;2023-02-26T04:28:29;-0.10;99.90
37050;DHT22;22958;51.232;6.826;2023-02-26T04:30:55;-0.10;99.90
37050;DHT22;22958;51.232;6.826;2023-02-26T04:33:20;-0.20;99.90
37050;DHT22;22958;51.232;6.826;2023-02-26T04:35:47;-0.20;99.90
37050;DHT22;22958;51.232;6.826;2023-02-26T04:38:13;-0.20;99.90
37050;DHT22;22958;51.232;6.826;2023-02-26T04:40:39;-0.30;99.90
37050;DHT22;22958;51.232;6.826;2023-02-26T04:43:04;-0.30;99.90
37050;DHT22;22958;51.232;6.826;2023-02-26T04:45:30;-0.40;99.90
37050;DHT22;22958;51.232;6.826;2023-02-26T04:47:55;-0.40;99.90
37050;DHT22;22958;51.232;6.826;2023-02-26T04:50:21;-0.40;99.90
37050;DHT22;22958;51.232;6.826;2023-02-26T04:52:47;-0.40;99.90
37050;DHT22;22958;51.232;6.826;2023-02-26T04:55:12;-0.40;99.90
37050;DHT22;22958;51.232;6.826;2023-02-26T04:57:39;-0.50;99.90
37050;DHT22;22958;51.232;6.826;2023-02-26T05:00:05;-0.50;99.90
37050;DHT22;22958;51.232;6.826;2023-02-26T05:02:32;-0.60;99.90
37050;DHT22;22958;51.232;6.826;2023-02-26T05:04:57;-0.60;99.90
37050;DHT22;22958;51.232;6.826;2023-02-26T05:07:23;-0.50;99.90
37050;DHT22;22958;51.232;6.826;2023-02-26T05:09:49;-0.50;99.90
37050;DHT22;22958;51.232;6.826;2023-02-26T05:12:14;-0.60;99.90
37050;DHT22;22958;51.232;6.826;2023-02-26T05:14:40;-0.60;99.90
37050;DHT22;22958;51.232;6.826;2023-02-26T05:17:06;-0.60;99.90
37050;DHT22;22958;51.232;6.826;2023-02-26T05:19:32;-0.70;99.90
37050;DHT22;22958;51.232;6.826;2023-02-26T05:21:57;-0.70;99.90
37050;DHT22;22958;51.232;6.826;2023-02-26T05:24:23;-0.60;99.90
37050;DHT22;22958;51.232;6.826;2023-02-26T05:26:48;-0.60;99.90
37050;DHT22;22958;51.232;6.826;2023-02-26T05:29:14;-0.60;99.90
37050;DHT22;22958;51.232;6.826;2023-02-26T05:31:39;-0.70;99.90
37050;DHT22;22958;51.232;6.826;2023-02-26T05:34:05;-0.70;99.90
37050;DHT22;22958;51.232;6.826;2023-02-26T05:36:30;-0.70;99.90
37050;DHT22;22958;51.232;6.826;2023-02-26T05:38:56;-0.60;99.90
37050;DHT22;22958;51.232;6.826;2023-02-26T05:41:21;-0.60;99.90
37050;DHT22;22958;51.232;6.826;2023-02-26T05:43:47;-0.60;99.90
37050;DHT22;22958;51.232;6.826;2023-02-26T05:46:12;-0.70;99.90
37050;DHT22;22958;51.232;6.826;2023-02-26T05:48:38;-0.70;99.90
37050;DHT22;22958;51.232;6.826;2023-02-26T05:51:04;-0.70;99.90
37050;DHT22;22958;51.232;6.826;2023-02-26T05:53:29;-0.70;99.90
37050;DHT22;22958;51.232;6.826;2023-02-26T05:55:55;-0.80;99.90
37050;DHT22;22958;51.232;6.826;2023-02-26T05:58:20;-0.90;99.90
37050;DHT22;22958;51.232;6.826;2023-02-26T06:00:46;-0.80;99.90
37050;DHT22;22958;51.232;6.826;2023-02-26T06:03:12;-0.70;99.90
37050;DHT22;22958;51.232;6.826;2023-02-26T06:05:37;-0.70;99.90
37050;DHT22;22958;51.232;6.826;2023-02-26T06:08:04;-0.80;99.90
37050;DHT22;22958;51.232;6.826;2023-02-26T06:10:30;-0.90;99.90
37050;DHT22;22958;51.232;6.826;2023-02-26T06:12:56;-0.90;99.90
37050;DHT22;22958;51.232;6.826;2023-02-26T06:15:21;-0.80;99.90
37050;DHT22;22958;51.232;6.826;2023-02-26T06:17:47;-0.70;99.90
37050;DHT22;22958;51.232;6.826;2023-02-26T06:20:13;-0.70;99.90
37050;DHT22;22958;51.232;6.826;2023-02-26T06:22:38;-0.70;99.90
37050;DHT22;22958;51.232;6.826;2023-02-26T06:25:04;-0.70;99.90
37050;DHT22;22958;51.232;6.826;2023-02-26T06:27:30;-0.90;99.90
37050;DHT22;22958;51.232;6.826;2023-02-26T06:29:56;-0.90;99.90
37050;DHT22;22958;51.232;6.826;2023-02-26T06:32:21;-0.90;99.90
37050;DHT22;22958;51.232;6.826;2023-02-26T06:34:47;-0.90;99.90
37050;DHT22;22958;51.232;6.826;2023-02-26T06:37:13;-0.80;99.90
37050;DHT22;22958;51.232;6.826;2023-02-26T06:39:38;-0.80;99.90
37050;DHT22;22958;51.232;6.826;2023-02-26T06:42:04;-0.80;99.90
37050;DHT22;22958;51.232;6.826;2023-02-26T06:44:29;-0.70;99.90
37050;DHT22;22958;51.232;6.826;2023-02-26T06:46:55;-0.60;99.90
37050;DHT22;22958;51.232;6.826;2023-02-26T06:49:20;-0.60;99.90
37050;DHT22;22958;51.232;6.826;2023-02-26T06:51:46;-0.50;99.90
37050;DHT22;22958;51.232;6.826;2023-02-26T06:54:12;-0.30;99.90
37050;DHT22;22958;51.232;6.826;2023-02-26T06:56:37;0.00;99.90
37050;DHT22;22958;51.232;6.826;2023-02-26T06:59:03;0.00;99.90
37050;DHT22;22958;51.232;6.826;2023-02-26T07:01:28;-0.10;99.90
37050;DHT22;22958;51.232;6.826;2023-02-26T07:03:56;-0.10;99.90
37050;DHT22;22958;51.232;6.826;2023-02-26T07:06:21;-0.20;99.90
37050;DHT22;22958;51.232;6.826;2023-02-26T07:08:47;-0.20;99.90
37050;DHT22;22958;51.232;6.826;2023-02-26T07:11:13;-0.20;99.90
37050;DHT22;22958;51.232;6.826;2023-02-26T07:13:39;-0.10;99.90
37050;DHT22;22958;51.232;6.826;2023-02-26T07:16:04;-0.10;99.90
37050;DHT22;22958;51.232;6.826;2023-02-26T07:18:32;-0.10;99.90
37050;DHT22;22958;51.232;6.826;2023-02-26T07:20:58;0.00;99.90
37050;DHT22;22958;51.232;6.826;2023-02-26T07:23:24;0.10;99.90
37050;DHT22;22958;51.232;6.826;2023-02-26T07:25:49;0.20;99.90
37050;DHT22;22958;51.232;6.826;2023-02-26T07:28:15;0.20;99.90
37050;DHT22;22958;51.232;6.826;2023-02-26T07:30:41;0.30;99.90
37050;DHT22;22958;51.232;6.826;2023-02-26T07:33:07;0.30;99.90
37050;DHT22;22958;51.232;6.826;2023-02-26T07:35:33;0.30;99.90
37050;DHT22;22958;51.232;6.826;2023-02-26T07:37:59;0.40;99.90
37050;DHT22;22958;51.232;6.826;2023-02-26T07:40:24;0.50;99.90
37050;DHT22;22958;51.232;6.826;2023-02-26T07:42:50;0.60;99.90
37050;DHT22;22958;51.232;6.826;2023-02-26T07:45:15;0.70;99.90
37050;DHT22;22958;51.232;6.826;2023-02-26T07:47:47;0.80;99.90
37050;DHT22;22958;51.232;6.826;2023-02-26T07:50:12;0.80;99.90
37050;DHT22;22958;51.232;6.826;2023-02-26T07:52:38;0.90;99.90
37050;DHT22;22958;51.232;6.826;2023-02-26T07:55:04;1.00;99.90
37050;DHT22;22958;51.232;6.826;2023-02-26T07:57:30;1.00;99.90
37050;DHT22;22958;51.232;6.826;2023-02-26T07:59:55;1.10;99.90
37050;DHT22;22958;51.232;6.826;2023-02-26T08:02:21;1.10;99.90
37050;DHT22;22958;51.232;6.826;2023-02-26T08:04:48;1.20;99.90
37050;DHT22;22958;51.232;6.826;2023-02-26T08:07:13;1.20;99.90
37050;DHT22;22958;51.232;6.826;2023-02-26T08:09:39;1.30;99.90
37050;DHT22;22958;51.232;6.826;2023-02-26T08:12:04;1.30;99.90
37050;DHT22;22958;51.232;6.826;2023-02-26T08:14:30;1.40;99.90
37050;DHT22;22958;51.232;6.826;2023-02-26T08:16:56;1.40;99.90
37050;DHT22;22958;51.232;6.826;2023-02-26T08:19:21;1.40;99.90
37050;DHT22;22958;51.232;6.826;2023-02-26T08:21:47;1.40;99.90
37050;DHT22;22958;51.232;6.826;2023-02-26T08:24:12;1.40;99.90
37050;DHT22;22958;51.232;6.826;2023-02-26T08:26:38;1.50;99.90
37050;DHT22;22958;51.232;6.826;2023-02-26T08:29:04;1.60;99.90
37050;DHT22;22958;51.232;6.826;2023-02-26T08:31:30;1.70;99.90
37050;DHT22;22958;51.232;6.826;2023-02-26T08:33:56;1.70;99.90
37050;DHT22;22958;51.232;6.826;2023-02-26T08:36:23;1.60;99.90
37050;DHT22;22958;51.232;6.826;2023-02-26T08:38:48;1.70;99.90
37050;DHT22;22958;51.232;6.826;2023-02-26T08:41:14;1.80;99.90
37050;DHT22;22958;51.232;6.826;2023-02-26T08:43:39;1.80;99.90
37050;DHT22;22958;51.232;6.826;2023-02-26T08:46:05;1.90;99.90
37050;DHT22;22958;51.232;6.826;2023-02-26T08:48:31;1.80;99.90
37050;DHT22;22958;51.232;6.826;2023-02-26T08:50:56;1.90;99.90
37050;DHT22;22958;51.232;6.826;2023-02-26T08:53:22;2.00;99.90
37050;DHT22;22958;51.232;6.826;2023-02-26T08:55:49;2.00;99.90
37050;DHT22;22958;51.232;6.826;2023-02-26T08:58:15;2.00;99.90
37050;DHT22;22958;51.232;6.826;2023-02-26T09:00:41;2.10;99.90
37050;DHT22;22958;51.232;6.826;2023-02-26T09:03:06;2.10;99.90
37050;DHT22;22958;51.232;6.826;2023-02-26T09:05:32;2.20;99.90
37050;DHT22;22958;51.232;6.826;2023-02-26T09:07:57;2.20;99.90
37050;DHT22;22958;51.232;6.826;2023-02-26T09:10:23;2.30;99.90
37050;DHT22;22958;51.232;6.826;2023-02-26T09:12:48;2.40;99.90
37050;DHT22;22958;51.232;6.826;2023-02-26T09:15:14;2.40;99.90
37050;DHT22;22958;51.232;6.826;2023-02-26T09:17:40;2.50;99.90
37050;DHT22;22958;51.232;6.826;2023-02-26T09:20:06;2.60;99.90
37050;DHT22;22958;51.232;6.826;2023-02-26T09:22:33;2.30;99.90
37050;DHT22;22958;51.232;6.826;2023-02-26T09:24:59;2.20;99.90
37050;DHT22;22958;51.232;6.826;2023-02-26T09:27:25;2.30;99.90
37050;DHT22;22958;51.232;6.826;2023-02-26T09:29:50;2.50;99.90
37050;DHT22;22958;51.232;6.826;2023-02-26T09:32:16;2.50;99.90
37050;DHT22;22958;51.232;6.826;2023-02-26T09:34:41;2.50;99.90
37050;DHT22;22958;51.232;6.826;2023-02-26T09:37:08;2.60;99.90
37050;DHT22;22958;51.232;6.826;2023-02-26T09:39:34;2.70;99.90
37050;DHT22;22958;51.232;6.826;2023-02-26T09:44:37;2.90;99.90
37050;DHT22;22958;51.232;6.826;2023-02-26T09:49:48;3.10;99.90
37050;DHT22;22958;51.232;6.826;2023-02-26T09:52:24;3.40;99.90
37050;DHT22;22958;51.232;6.826;2023-02-26T09:54:55;3.50;99.90
37050;DHT22;22958;51.232;6.826;2023-02-26T09:57:35;3.70;99.90
37050;DHT22;22958;51.232;6.826;2023-02-26T10:00:32;3.90;99.90
37050;DHT22;22958;51.232;6.826;2023-02-26T10:05:50;4.20;99.90
37050;DHT22;22958;51.232;6.826;2023-02-26T10:08:21;4.10;99.90
37050;DHT22;22958;51.232;6.826;2023-02-26T10:11:12;4.20;99.90
37050;DHT22;22958;51.232;6.826;2023-02-26T10:13:46;4.30;99.90
37050;DHT22;22958;51.232;6.826;2023-02-26T10:16:16;4.60;99.90
37050;DHT22;22958;51.232;6.826;2023-02-26T10:18:54;4.80;99.90
37050;DHT22;22958;51.232;6.826;2023-02-26T10:21:39;4.90;99.90
37050;DHT22;22958;51.232;6.826;2023-02-26T10:24:12;5.00;99.90
37050;DHT22;22958;51.232;6.826;2023-02-26T10:26:42;5.10;99.90
37050;DHT22;22958;51.232;6.826;2023-02-26T10:35:08;5.30;99.90
37050;DHT22;22958;51.232;6.826;2023-02-26T10:38:04;5.40;99.90
37050;DHT22;22958;51.232;6.826;2023-02-26T10:40:43;5.10;99.90
37050;DHT22;22958;51.232;6.826;2023-02-26T10:43:21;5.20;99.90
37050;DHT22;22958;51.232;6.826;2023-02-26T10:50:52;4.40;99.90
37050;DHT22;22958;51.232;6.826;2023-02-26T10:53:19;4.40;99.90
37050;DHT22;22958;51.232;6.826;2023-02-26T10:56:05;4.60;99.90
37050;DHT22;22958;51.232;6.826;2023-02-26T10:58:32;4.70;99.90
37050;DHT22;22958;51.232;6.826;2023-02-26T11:00:58;4.10;99.90
37050;DHT22;22958;51.232;6.826;2023-02-26T11:03:33;4.00;99.90
37050;DHT22;22958;51.232;6.826;2023-02-26T11:06:01;4.20;99.90
37050;DHT22;22958;51.232;6.826;2023-02-26T11:08:42;4.10;99.90
37050;DHT22;22958;51.232;6.826;2023-02-26T11:11:09;4.10;99.90
37050;DHT22;22958;51.232;6.826;2023-02-26T11:13:37;4.10;99.90
37050;DHT22;22958;51.232;6.826;2023-02-26T11:16:14;4.10;99.90
37050;DHT22;22958;51.232;6.826;2023-02-26T11:18:44;4.30;99.90
37050;DHT22;22958;51.232;6.826;2023-02-26T11:21:18;4.30;99.80
37050;DHT22;22958;51.232;6.826;2023-02-26T11:23:45;4.90;99.80
37050;DHT22;22958;51.232;6.826;2023-02-26T11:26:18;5.60;98.60
37050;DHT22;22958;51.232;6.826;2023-02-26T11:28:49;6.90;96.70
37050;DHT22;22958;51.232;6.826;2023-02-26T11:31:17;8.40;93.90
37050;DHT22;22958;51.232;6.826;2023-02-26T11:33:48;7.60;93.00
37050;DHT22;22958;51.232;6.826;2023-02-26T11:36:17;8.40;91.00
37050;DHT22;22958;51.232;6.826;2023-02-26T11:38:44;7.40;91.00
37050;DHT22;22958;51.232;6.826;2023-02-26T11:41:11;6.80;91.90
37050;DHT22;22958;51.232;6.826;2023-02-26T11:43:43;7.40;92.40
37050;DHT22;22958;51.232;6.826;2023-02-26T11:46:10;7.60;90.70
37050;DHT22;22958;51.232;6.826;2023-02-26T11:48:40;8.40;90.20
37050;DHT22;22958;51.232;6.826;2023-02-26T11:51:07;9.10;87.80
37050;DHT22;22958;51.232;6.826;2023-02-26T11:56:14;10.10;81.20
37050;DHT22;22958;51.232;6.826;2023-02-26T11:58:45;11.00;77.10
37050;DHT22;22958;51.232;6.826;2023-02-26T12:01:13;10.90;70.50
37050;DHT22;22958;51.232;6.826;2023-02-26T12:03:44;9.90;71.30
37050;DHT22;22958;51.232;6.826;2023-02-26T12:06:21;7.10;73.30
37050;DHT22;22958;51.232;6.826;2023-02-26T12:08:49;6.40;76.80
37050;DHT22;22958;51.232;6.826;2023-02-26T12:11:28;8.00;75.10
37050;DHT22;22958;51.232;6.826;2023-02-26T12:17:12;11.80;63.00
37050;DHT22;22958;51.232;6.826;2023-02-26T12:20:06;11.20;62.80
37050;DHT22;22958;51.232;6.826;2023-02-26T12:22:49;11.80;59.90
37050;DHT22;22958;51.232;6.826;2023-02-26T12:31:02;12.30;58.20
37050;DHT22;22958;51.232;6.826;2023-02-26T12:41:25;14.50;49.20
37050;DHT22;22958;51.232;6.826;2023-02-26T12:43:54;16.00;47.40
37050;DHT22;22958;51.232;6.826;2023-02-26T12:46:45;13.40;48.00
37050;DHT22;22958;51.232;6.826;2023-02-26T12:49:35;12.70;49.40
37050;DHT22;22958;51.232;6.826;2023-02-26T12:52:20;14.40;48.60
37050;DHT22;22958;51.232;6.826;2023-02-26T12:54:58;14.90;47.40
37050;DHT22;22958;51.232;6.826;2023-02-26T13:09:10;18.10;40.60
37050;DHT22;22958;51.232;6.826;2023-02-26T13:17:06;19.30;40.70
37050;DHT22;22958;51.232;6.826;2023-02-26T13:19:40;19.90;38.90
37050;DHT22;22958;51.232;6.826;2023-02-26T13:25:03;19.50;40.50
37050;DHT22;22958;51.232;6.826;2023-02-26T13:27:35;21.50;37.30
37050;DHT22;22958;51.232;6.826;2023-02-26T13:30:24;20.00;37.20
37050;DHT22;22958;51.232;6.826;2023-02-26T13:32:55;20.10;36.60
37050;DHT22;22958;51.232;6.826;2023-02-26T13:35:38;20.40;34.80
37050;DHT22;22958;51.232;6.826;2023-02-26T13:41:09;18.30;36.20
37050;DHT22;22958;51.232;6.826;2023-02-26T13:46:53;16.50;35.10
37050;DHT22;22958;51.232;6.826;2023-02-26T13:52:31;17.60;36.40
37050;DHT22;22958;51.232;6.826;2023-02-26T13:54:57;16.90;37.90
37050;DHT22;22958;51.232;6.826;2023-02-26T13:57:46;16.70;38.00
37050;DHT22;22958;51.232;6.826;2023-02-26T14:00:32;17.60;37.60
37050;DHT22;22958;51.232;6.826;2023-02-26T14:10:45;16.50;38.40
37050;DHT22;22958;51.232;6.826;2023-02-26T14:13:16;14.60;39.10
37050;DHT22;22958;51.232;6.826;2023-02-26T14:15:58;14.70;39.50
37050;DHT22;22958;51.232;6.826;2023-02-26T14:18:30;15.30;38.70
37050;DHT22;22958;51.232;6.826;2023-02-26T14:23:54;16.40;37.80
37050;DHT22;22958;51.232;6.826;2023-02-26T14:26:22;18.10;35.90
37050;DHT22;22958;51.232;6.826;2023-02-26T14:32:15;19.90;35.20
37050;DHT22;22958;51.232;6.826;2023-02-26T14:34:54;18.90;33.80
37050;DHT22;22958;51.232;6.826;2023-02-26T14:37:24;18.30;33.80
37050;DHT22;22958;51.232;6.826;2023-02-26T14:40:03;18.10;34.80
37050;DHT22;22958;51.232;6.826;2023-02-26T14:43:02;17.30;36.20
37050;DHT22;22958;51.232;6.826;2023-02-26T14:45:38;16.80;35.40
37050;DHT22;22958;51.232;6.826;2023-02-26T14:48:06;15.70;37.40
37050;DHT22;22958;51.232;6.826;2023-02-26T14:53:46;14.70;38.10
37050;DHT22;22958;51.232;6.826;2023-02-26T15:05:03;18.30;34.50
37050;DHT22;22958;51.232;6.826;2023-02-26T15:08:04;15.50;36.30
37050;DHT22;22958;51.232;6.826;2023-02-26T15:21:58;14.50;38.80
37050;DHT22;22958;51.232;6.826;2023-02-26T15:24:28;15.10;39.00
37050;DHT22;22958;51.232;6.826;2023-02-26T15:26:57;16.60;38.50
37050;DHT22;22958;51.232;6.826;2023-02-26T15:29:30;15.50;37.10
37050;DHT22;22958;51.232;6.826;2023-02-26T15:31:59;15.70;39.00
37050;DHT22;22958;51.232;6.826;2023-02-26T15:34:28;13.60;39.20
37050;DHT22;22958;51.232;6.826;2023-02-26T15:36:56;14.70;40.20
37050;DHT22;22958;51.232;6.826;2023-02-26T15:39:23;13.40;40.80
37050;DHT22;22958;51.232;6.826;2023-02-26T15:41:50;13.30;40.90
37050;DHT22;22958;51.232;6.826;2023-02-26T15:44:24;14.00;40.80
37050;DHT22;22958;51.232;6.826;2023-02-26T15:46:55;14.60;39.60
37050;DHT22;22958;51.232;6.826;2023-02-26T15:49:33;15.90;39.30
37050;DHT22;22958;51.232;6.826;2023-02-26T15:52:01;13.50;40.00
37050;DHT22;22958;51.232;6.826;2023-02-26T15:54:57;14.00;40.70
37050;DHT22;22958;51.232;6.826;2023-02-26T15:57:25;13.00;40.80
37050;DHT22;22958;51.232;6.826;2023-02-26T15:59:53;12.50;42.50
37050;DHT22;22958;51.232;6.826;2023-02-26T16:02:23;12.60;43.00
37050;DHT22;22958;51.232;6.826;2023-02-26T16:04:50;12.30;43.70
37050;DHT22;22958;51.232;6.826;2023-02-26T16:07:18;11.90;44.60
37050;DHT22;22958;51.232;6.826;2023-02-26T16:09:46;12.30;44.00
37050;DHT22;22958;51.232;6.826;2023-02-26T16:12:23;12.20;43.60
37050;DHT22;22958;51.232;6.826;2023-02-26T16:14:54;11.60;45.50
37050;DHT22;22958;51.232;6.826;2023-02-26T16:17:32;10.40;45.70
37050;DHT22;22958;51.232;6.826;2023-02-26T16:20:02;10.00;48.00
37050;DHT22;22958;51.232;6.826;2023-02-26T16:22:38;9.60;49.10
37050;DHT22;22958;51.232;6.826;2023-02-26T16:25:23;8.40;50.80
37050;DHT22;22958;51.232;6.826;2023-02-26T16:28:00;7.30;53.60
37050;DHT22;22958;51.232;6.826;2023-02-26T16:30:35;6.80;55.30
37050;DHT22;22958;51.232;6.826;2023-02-26T16:33:04;6.20;57.00
37050;DHT22;22958;51.232;6.826;2023-02-26T16:35:35;5.90;58.60
37050;DHT22;22958;51.232;6.826;2023-02-26T16:38:31;5.70;59.50
37050;DHT22;22958;51.232;6.826;2023-02-26T16:41:08;5.70;60.20
37050;DHT22;22958;51.232;6.826;2023-02-26T16:43:50;5.60;61.30
37050;DHT22;22958;51.232;6.826;2023-02-26T16:46:38;5.30;62.20
37050;DHT22;22958;51.232;6.826;2023-02-26T16:49:19;5.10;62.90
37050;DHT22;22958;51.232;6.826;2023-02-26T16:51:47;5.10;63.50
37050;DHT22;22958;51.232;6.826;2023-02-26T16:54:25;4.90;64.10
37050;DHT22;22958;51.232;6.826;2023-02-26T16:57:00;4.80;64.50
37050;DHT22;22958;51.232;6.826;2023-02-26T16:59:31;4.80;65.20
37050;DHT22;22958;51.232;6.826;2023-02-26T17:02:12;4.60;66.10
37050;DHT22;22958;51.232;6.826;2023-02-26T17:04:38;4.60;67.10
37050;DHT22;22958;51.232;6.826;2023-02-26T17:07:13;4.60;67.00
37050;DHT22;22958;51.232;6.826;2023-02-26T17:09:43;4.40;67.40
37050;DHT22;22958;51.232;6.826;2023-02-26T17:12:14;4.30;68.00
37050;DHT22;22958;51.232;6.826;2023-02-26T17:14:42;4.20;68.70
37050;DHT22;22958;51.232;6.826;2023-02-26T17:17:08;4.20;69.40
37050;DHT22;22958;51.232;6.826;2023-02-26T17:19:34;4.10;69.90
37050;DHT22;22958;51.232;6.826;2023-02-26T17:22:00;4.10;70.70
37050;DHT22;22958;51.232;6.826;2023-02-26T17:24:34;4.00;71.10
37050;DHT22;22958;51.232;6.826;2023-02-26T17:27:03;3.90;72.20
37050;DHT22;22958;51.232;6.826;2023-02-26T17:29:35;3.90;72.90
37050;DHT22;22958;51.232;6.826;2023-02-26T17:32:05;3.80;73.20
37050;DHT22;22958;51.232;6.826;2023-02-26T17:34:32;3.70;73.70
37050;DHT22;22958;51.232;6.826;2023-02-26T17:36:57;3.70;74.40
37050;DHT22;22958;51.232;6.826;2023-02-26T17:39:24;3.70;74.90
37050;DHT22;22958;51.232;6.826;2023-02-26T17:41:49;3.60;75.00
37050;DHT22;22958;51.232;6.826;2023-02-26T17:44:15;3.50;76.70
37050;DHT22;22958;51.232;6.826;2023-02-26T17:46:41;3.50;77.00
37050;DHT22;22958;51.232;6.826;2023-02-26T17:49:06;3.60;80.00
37050;DHT22;22958;51.232;6.826;2023-02-26T17:51:32;3.60;77.50
37050;DHT22;22958;51.232;6.826;2023-02-26T17:53:57;3.50;77.40
37050;DHT22;22958;51.232;6.826;2023-02-26T17:56:28;3.40;77.60
37050;DHT22;22958;51.232;6.826;2023-02-26T17:58:55;3.40;77.90
37050;DHT22;22958;51.232;6.826;2023-02-26T18:01:21;3.30;79.50
37050;DHT22;22958;51.232;6.826;2023-02-26T18:03:50;3.30;79.10
37050;DHT22;22958;51.232;6.826;2023-02-26T18:06:16;3.20;79.60
37050;DHT22;22958;51.232;6.826;2023-02-26T18:08:43;3.20;81.30
37050;DHT22;22958;51.232;6.826;2023-02-26T18:11:11;3.20;81.30